Terminal Aerodrome Forecast
Issued by NWS

Home | Current Version | Previous Version | Text Only | Print | Product List | Glossary On
Versions: 1 2 3 4 5 6 7 8 9 10 11 12 13 14 15 16 17 18 19 20 21 22 23
000
FTUS43 KDMX 240550
TAFFOD
TAF
KFOD 240550Z 2406/2506 12005KT P6SM OVC012
     FM241500 11009KT 5SM -SN SCT010 OVC030
     FM241600 11013G20KT 3SM -SN BKN012 OVC025
     FM242000 11015G20KT 5SM -RASN BKN008
     FM250000 09011G17KT 1 1/2SM RASN OVC005
     FM250300 06009KT 1SM -SN OVC004=

USA.gov is the U.S. government's official web portal to all federal, state and local government web resources and services.